Time;durP1;ratioP1;P1;durP2;ratioP2;P2;SDS_P1;SDS_P2;PMS_P1;PMS_P2;Temp;Humidity;BMP_temperature;BMP_pressure;BME280_temperature;BME280_humidity;BME280_pressure;Samples;Min_cycle;Max_cycle;Signal;HPM_P1;HPM_P2
2022/07/26 00:01:20;0.00;0.00;0.62;0.00;0.00;0.62;3.27;1.70;;;28.80;28.80;;;;;;2221623;62;20367;-67
2022/07/26 00:04:06;0.00;0.00;0.62;0.00;0.00;0.62;2.57;1.73;;;28.70;28.80;;;;;;2221783;62;20374;-67
2022/07/26 00:06:51;0.00;0.00;0.62;0.00;0.00;0.62;4.50;2.20;;;28.70;28.80;;;;;;2222422;62;20628;-71
2022/07/26 00:09:36;0.00;0.00;0.62;0.00;0.00;0.62;2.57;1.40;;;28.70;28.80;;;;;;2221801;62;20416;-71
2022/07/26 00:12:22;0.00;0.00;0.62;0.00;0.00;0.62;2.80;1.20;;;28.70;28.70;;;;;;2225345;62;20450;-70
2022/07/26 00:15:10;0.00;0.00;0.62;0.00;0.00;0.62;3.87;1.77;;;28.70;28.80;;;;;;2226242;62;20411;-66
2022/07/26 00:17:56;0.00;0.00;0.62;0.00;0.00;0.62;5.27;2.13;;;28.70;28.80;;;;;;2225868;62;20745;-63
2022/07/26 00:20:41;0.00;0.00;0.62;0.00;0.00;0.62;5.37;1.80;;;28.70;28.90;;;;;;2226055;62;20415;-66
2022/07/26 00:23:26;0.00;0.00;0.62;0.00;0.00;0.62;6.03;1.90;;;28.60;28.90;;;;;;2225585;62;20390;-63
2022/07/26 00:26:11;0.00;0.00;0.62;0.00;0.00;0.62;3.90;1.90;;;28.60;29.40;;;;;;2225649;62;20431;-63
2022/07/26 00:28:56;0.00;0.00;0.62;0.00;0.00;0.62;6.50;2.33;;;28.60;28.90;;;;;;2226259;62;20362;-63
2022/07/26 00:31:41;0.00;0.00;0.62;0.00;0.00;0.62;6.33;1.70;;;28.60;29.00;;;;;;2225436;62;20443;-63
2022/07/26 00:34:27;0.00;0.00;0.62;0.00;0.00;0.62;4.73;2.03;;;28.50;28.90;;;;;;2225673;62;20366;-63
2022/07/26 00:37:12;0.00;0.00;0.62;0.00;0.00;0.62;5.60;1.80;;;28.50;28.90;;;;;;2226299;62;20462;-62
2022/07/26 00:39:56;0.00;0.00;0.62;0.00;0.00;0.62;4.93;2.20;;;28.50;28.90;;;;;;2226048;62;20382;-62
2022/07/26 00:42:41;0.00;0.00;0.62;0.00;0.00;0.62;5.87;2.00;;;28.40;28.90;;;;;;2564956;46;20428;-62
2022/07/26 00:45:26;0.00;0.00;0.62;0.00;0.00;0.62;4.20;1.53;;;28.50;29.00;;;;;;2217811;62;20383;-62
2022/07/26 00:48:11;0.00;0.00;0.62;0.00;0.00;0.62;4.53;1.83;;;28.40;29.00;;;;;;2217930;62;20359;-63
2022/07/26 00:50:57;0.00;0.00;0.62;0.00;0.00;0.62;3.50;1.93;;;28.40;29.00;;;;;;2219862;62;20378;-62
2022/07/26 00:53:43;0.00;0.00;0.62;0.00;0.00;0.62;4.23;1.90;;;28.40;29.00;;;;;;2221541;62;20398;-62
2022/07/26 00:56:29;0.00;0.00;0.62;0.00;0.00;0.62;5.20;1.70;;;28.40;29.10;;;;;;2221787;62;20399;-62
2022/07/26 00:59:13;0.00;0.00;0.62;0.00;0.00;0.62;4.37;2.10;;;28.30;29.00;;;;;;2222299;62;20739;-62
2022/07/26 01:01:58;0.00;0.00;0.62;0.00;0.00;0.62;5.77;2.30;;;28.30;29.10;;;;;;2221729;62;20403;-62
2022/07/26 01:04:43;0.00;0.00;0.62;0.00;0.00;0.62;6.00;2.00;;;28.30;29.20;;;;;;2222347;62;20816;-62
2022/07/26 01:07:30;0.00;0.00;0.62;0.00;0.00;0.62;3.03;1.57;;;28.30;29.20;;;;;;2223898;62;20359;-62
2022/07/26 01:10:15;0.00;0.00;0.62;0.00;0.00;0.62;3.23;1.77;;;28.30;29.10;;;;;;2221932;62;20379;-62
2022/07/26 01:13:00;0.00;0.00;0.62;0.00;0.00;0.62;2.17;1.50;;;28.30;29.00;;;;;;2226156;62;20386;-62
2022/07/26 01:15:47;0.00;0.00;0.62;0.00;0.00;0.62;4.03;1.87;;;28.30;29.10;;;;;;2225377;62;20396;-62
2022/07/26 01:19:03;0.00;0.00;0.62;0.00;0.00;0.62;2.50;1.43;;;28.20;29.00;;;;;;2225675;62;20649;-62
2022/07/26 01:21:50;0.00;0.00;0.62;0.00;0.00;0.62;2.27;1.43;;;28.20;29.00;;;;;;2222409;62;20440;-62
2022/07/26 01:24:35;0.00;0.00;0.62;0.00;0.00;0.62;3.50;1.50;;;28.20;29.00;;;;;;2221781;62;20395;-62
2022/07/26 01:27:20;0.00;0.00;0.62;0.00;0.00;0.62;2.80;1.20;;;28.20;28.90;;;;;;2222169;62;20363;-62
2022/07/26 01:30:09;0.00;0.00;0.62;0.00;0.00;0.62;2.63;1.27;;;28.20;28.90;;;;;;2221287;62;20658;-62
2022/07/26 01:32:54;0.00;0.00;0.62;0.00;0.00;0.62;6.37;1.90;;;28.20;28.90;;;;;;2221977;62;20476;-61
2022/07/26 01:35:39;0.00;0.00;0.62;0.00;0.00;0.62;2.83;1.30;;;28.20;28.80;;;;;;2222617;62;20370;-62
2022/07/26 01:38:25;0.00;0.00;0.62;0.00;0.00;0.62;2.90;1.20;;;28.10;28.80;;;;;;2222281;62;20431;-62
2022/07/26 01:41:10;0.00;0.00;0.62;0.00;0.00;0.62;2.77;1.27;;;28.10;28.70;;;;;;2222248;62;20406;-62
2022/07/26 01:43:55;0.00;0.00;0.62;0.00;0.00;0.62;3.30;1.33;;;28.10;28.80;;;;;;2222428;62;20626;-62
2022/07/26 01:46:40;0.00;0.00;0.62;0.00;0.00;0.62;4.83;1.60;;;28.10;28.70;;;;;;2222765;62;20435;-63
2022/07/26 01:49:25;0.00;0.00;0.62;0.00;0.00;0.62;3.00;1.30;;;28.10;28.70;;;;;;2222729;62;20363;-62
2022/07/26 01:52:10;0.00;0.00;0.62;0.00;0.00;0.62;3.10;1.43;;;28.10;28.60;;;;;;2222059;62;20399;-62
2022/07/26 01:54:56;0.00;0.00;0.62;0.00;0.00;0.62;3.20;1.27;;;28.10;28.60;;;;;;2222405;62;20394;-63
2022/07/26 01:57:44;0.00;0.00;0.62;0.00;0.00;0.62;3.57;1.50;;;28.10;28.60;;;;;;2222619;62;20513;-62
2022/07/26 02:00:29;0.00;0.00;0.62;0.00;0.00;0.62;2.40;1.10;;;28.10;28.60;;;;;;2222849;62;20417;-62
2022/07/26 02:03:14;0.00;0.00;0.62;0.00;0.00;0.62;2.77;1.50;;;28.10;28.60;;;;;;2226223;62;20390;-62
2022/07/26 02:05:59;0.00;0.00;0.62;0.00;0.00;0.62;2.90;1.20;;;28.00;28.60;;;;;;2226629;62;20366;-62
2022/07/26 02:08:44;0.00;0.00;0.62;0.00;0.00;0.62;2.73;1.10;;;28.00;28.70;;;;;;2226612;62;20374;-62
2022/07/26 02:11:30;0.00;0.00;0.62;0.00;0.00;0.62;3.10;1.17;;;28.00;28.70;;;;;;2223932;62;20424;-62
2022/07/26 02:14:15;0.00;0.00;0.62;0.00;0.00;0.62;3.27;1.50;;;28.00;28.70;;;;;;2222278;62;20581;-62
2022/07/26 02:16:59;0.00;0.00;0.62;0.00;0.00;0.62;3.47;1.40;;;28.00;28.80;;;;;;2222185;62;20474;-63
2022/07/26 02:19:44;0.00;0.00;0.62;0.00;0.00;0.62;2.40;1.10;;;28.00;28.80;;;;;;2222805;62;20370;-62
2022/07/26 02:22:29;0.00;0.00;0.62;0.00;0.00;0.62;2.93;1.40;;;27.90;28.80;;;;;;2449618;54;20429;-62
2022/07/26 02:25:14;0.00;0.00;0.62;0.00;0.00;0.62;2.90;1.10;;;27.90;28.90;;;;;;2222220;62;20367;-62
2022/07/26 02:28:00;0.00;0.00;0.62;0.00;0.00;0.62;2.60;1.10;;;27.90;28.90;;;;;;2222653;62;20364;-62
2022/07/26 02:30:46;0.00;0.00;0.62;0.00;0.00;0.62;3.40;1.70;;;27.90;29.00;;;;;;2222301;62;20378;-60
2022/07/26 02:33:31;0.00;0.00;0.62;0.00;0.00;0.62;4.63;1.87;;;27.90;29.00;;;;;;2222412;62;20424;-63
2022/07/26 02:36:15;0.00;0.00;0.62;0.00;0.00;0.62;3.13;1.43;;;27.80;29.00;;;;;;2221688;62;20408;-62
2022/07/26 02:39:00;0.00;0.00;0.62;0.00;0.00;0.62;2.73;1.30;;;27.80;29.00;;;;;;2222128;62;20376;-62
2022/07/26 02:41:45;0.00;0.00;0.62;0.00;0.00;0.62;4.90;1.53;;;27.80;29.10;;;;;;2225398;62;20402;-62
2022/07/26 02:44:33;0.00;0.00;0.62;0.00;0.00;0.62;3.10;1.43;;;27.80;29.20;;;;;;2225763;62;20587;-62
2022/07/26 02:47:18;0.00;0.00;0.62;0.00;0.00;0.62;2.77;1.60;;;27.80;29.20;;;;;;2226112;62;20377;-62
2022/07/26 02:50:03;0.00;0.00;0.62;0.00;0.00;0.62;3.37;1.53;;;27.80;29.30;;;;;;2226572;62;20407;-63
2022/07/26 02:52:49;0.00;0.00;0.62;0.00;0.00;0.62;2.50;1.40;;;27.70;29.20;;;;;;2218150;62;20815;-62
2022/07/26 02:55:34;0.00;0.00;0.62;0.00;0.00;0.62;4.37;1.40;;;27.70;29.30;;;;;;2218285;62;20405;-61
2022/07/26 02:58:20;0.00;0.00;0.62;0.00;0.00;0.62;2.70;1.47;;;27.70;29.30;;;;;;2218070;62;20399;-61
2022/07/26 03:01:06;0.00;0.00;0.62;0.00;0.00;0.62;2.70;1.57;;;27.70;29.50;;;;;;2219798;62;20371;-62
2022/07/26 03:03:51;0.00;0.00;0.62;0.00;0.00;0.62;3.90;1.50;;;27.70;29.60;;;;;;2222666;62;20375;-62
2022/07/26 03:06:36;0.00;0.00;0.62;0.00;0.00;0.62;6.23;2.13;;;27.70;29.60;;;;;;2221851;62;20358;-62
2022/07/26 03:09:21;0.00;0.00;0.62;0.00;0.00;0.62;3.20;1.50;;;27.70;29.70;;;;;;2222006;62;20370;-62
2022/07/26 03:12:07;0.00;0.00;0.62;0.00;0.00;0.62;4.80;1.50;;;27.70;29.70;;;;;;2226035;62;20393;-62
2022/07/26 03:14:52;0.00;0.00;0.62;0.00;0.00;0.62;4.10;1.50;;;27.70;29.70;;;;;;2225982;62;20588;-62
2022/07/26 03:17:38;0.00;0.00;0.62;0.00;0.00;0.62;3.20;1.40;;;27.60;29.70;;;;;;2226002;62;20388;-62
2022/07/26 03:20:23;0.00;0.00;0.62;0.00;0.00;0.62;6.40;1.80;;;27.60;29.80;;;;;;2225557;62;20393;-62
2022/07/26 03:23:08;0.00;0.00;0.62;0.00;0.00;0.62;4.50;1.83;;;27.60;29.80;;;;;;2225857;62;20451;-62
2022/07/26 03:25:52;0.00;0.00;0.62;0.00;0.00;0.62;4.17;1.80;;;27.60;29.90;;;;;;2226617;62;20370;-62
2022/07/26 03:28:38;0.00;0.00;0.62;0.00;0.00;0.62;3.83;1.87;;;27.60;29.90;;;;;;2225694;62;20407;-62
2022/07/26 03:31:24;0.00;0.00;0.62;0.00;0.00;0.62;4.33;1.80;;;27.60;30.00;;;;;;2223040;62;20374;-62
2022/07/26 03:34:10;0.00;0.00;0.62;0.00;0.00;0.62;4.00;1.67;;;27.60;30.00;;;;;;2222539;62;20363;-62
2022/07/26 03:36:55;0.00;0.00;0.62;0.00;0.00;0.62;3.40;1.50;;;27.60;30.00;;;;;;2221812;62;20398;-62
2022/07/26 03:39:39;0.00;0.00;0.62;0.00;0.00;0.62;3.77;1.70;;;27.60;30.00;;;;;;2222192;62;20367;-62
2022/07/26 03:42:24;0.00;0.00;0.62;0.00;0.00;0.62;5.63;1.70;;;27.50;30.00;;;;;;2221675;62;20402;-63
2022/07/26 03:45:10;0.00;0.00;0.62;0.00;0.00;0.62;4.53;2.20;;;27.50;30.10;;;;;;2221981;62;20424;-62
2022/07/26 03:47:55;0.00;0.00;0.62;0.00;0.00;0.62;5.73;1.90;;;27.60;30.10;;;;;;2222526;62;20358;-63
2022/07/26 03:50:41;0.00;0.00;0.62;0.00;0.00;0.62;5.73;1.93;;;27.50;30.30;;;;;;2221555;62;20386;-62
2022/07/26 03:53:26;0.00;0.00;0.62;0.00;0.00;0.62;1.90;1.57;;;27.50;30.40;;;;;;2222043;62;20387;-62
2022/07/26 03:59:14;0.00;0.00;0.62;0.00;0.00;0.62;2.70;1.50;;;27.40;30.60;;;;;;2221915;62;20382;-61
2022/07/26 04:01:59;0.00;0.00;0.62;0.00;0.00;0.62;5.10;2.03;;;27.40;30.90;;;;;;2225011;62;20393;-62
2022/07/26 04:04:44;0.00;0.00;0.62;0.00;0.00;0.62;5.67;1.80;;;27.40;30.80;;;;;;2225583;62;20423;-63
2022/07/26 04:07:30;0.00;0.00;0.62;0.00;0.00;0.62;3.40;1.77;;;27.40;31.00;;;;;;2225919;62;20366;-62
2022/07/26 04:10:15;0.00;0.00;0.62;0.00;0.00;0.62;3.93;1.63;;;27.40;30.90;;;;;;2225702;62;20460;-62
2022/07/26 04:13:00;0.00;0.00;0.62;0.00;0.00;0.62;5.00;1.80;;;27.40;31.00;;;;;;2221674;62;20403;-62
2022/07/26 04:15:45;0.00;0.00;0.62;0.00;0.00;0.62;2.63;1.60;;;27.40;31.70;;;;;;2221983;62;20367;-63
2022/07/26 04:18:30;0.00;0.00;0.62;0.00;0.00;0.62;6.07;1.83;;;27.40;31.00;;;;;;2222264;62;20605;-62
2022/07/26 04:21:15;0.00;0.00;0.62;0.00;0.00;0.62;3.80;1.63;;;27.40;31.10;;;;;;2221663;62;20394;-62
2022/07/26 04:24:02;0.00;0.00;0.62;0.00;0.00;0.62;3.83;1.63;;;27.40;31.20;;;;;;2221938;62;20366;-61
2022/07/26 04:26:47;0.00;0.00;0.62;0.00;0.00;0.62;4.47;1.60;;;27.40;31.60;;;;;;2221726;62;20464;-62
2022/07/26 04:29:32;0.00;0.00;0.62;0.00;0.00;0.62;2.87;1.83;;;27.40;31.70;;;;;;2222119;62;20366;-63
2022/07/26 04:32:17;0.00;0.00;0.62;0.00;0.00;0.62;4.43;2.07;;;27.40;31.70;;;;;;2222113;62;20434;-63
2022/07/26 04:35:02;0.00;0.00;0.62;0.00;0.00;0.62;6.73;2.43;;;27.40;31.70;;;;;;2221653;62;20575;-63
2022/07/26 04:37:47;0.00;0.00;0.62;0.00;0.00;0.62;4.77;2.20;;;27.30;31.60;;;;;;2221885;62;20789;-62
2022/07/26 04:40:33;0.00;0.00;0.62;0.00;0.00;0.62;6.43;2.17;;;27.30;31.60;;;;;;2222756;62;20453;-62
2022/07/26 04:43:18;0.00;0.00;0.62;0.00;0.00;0.62;6.13;2.53;;;27.30;31.60;;;;;;2225453;62;20620;-62
2022/07/26 04:46:03;0.00;0.00;0.62;0.00;0.00;0.62;3.97;2.07;;;27.30;31.60;;;;;;2227952;62;20378;-63
2022/07/26 04:48:48;0.00;0.00;0.62;0.00;0.00;0.62;8.27;2.47;;;27.30;31.60;;;;;;2226019;62;20370;-63
2022/07/26 04:51:32;0.00;0.00;0.62;0.00;0.00;0.62;6.10;2.73;;;27.30;31.80;;;;;;2222839;62;20415;-63
2022/07/26 04:54:21;0.00;0.00;0.62;0.00;0.00;0.62;4.47;2.50;;;27.30;31.90;;;;;;2238739;62;20379;-63
2022/07/26 04:57:08;0.00;0.00;0.62;0.00;0.00;0.62;4.33;2.23;;;27.30;31.90;;;;;;2220205;62;20778;-62
2022/07/26 04:59:52;0.00;0.00;0.62;0.00;0.00;0.62;5.00;2.97;;;27.30;31.90;;;;;;2219974;62;20394;-62
2022/07/26 05:02:37;0.00;0.00;0.62;0.00;0.00;0.62;5.70;2.80;;;27.30;32.00;;;;;;2234864;62;20439;-62
2022/07/26 05:05:23;0.00;0.00;0.62;0.00;0.00;0.62;5.23;2.77;;;27.30;32.00;;;;;;2219959;62;20732;-62
2022/07/26 05:08:08;0.00;0.00;0.62;0.00;0.00;0.62;5.47;3.37;;;27.30;32.10;;;;;;2220180;62;20707;-62
2022/07/26 05:10:53;0.00;0.00;0.62;0.00;0.00;0.62;6.13;2.07;;;27.30;32.20;;;;;;2221853;62;20746;-62
2022/07/26 05:13:39;0.00;0.00;0.62;0.00;0.00;0.62;4.10;2.17;;;27.30;32.30;;;;;;2224933;62;20426;-62
2022/07/26 05:16:23;0.00;0.00;0.62;0.00;0.00;0.62;3.97;2.20;;;27.20;32.50;;;;;;2224952;62;20464;-62
2022/07/26 05:19:08;0.00;0.00;0.62;0.00;0.00;0.62;5.67;3.30;;;27.20;32.50;;;;;;2224646;62;20393;-62
2022/07/26 05:21:53;0.00;0.00;0.62;0.00;0.00;0.62;6.50;2.23;;;27.20;32.60;;;;;;2223675;62;20397;-62
2022/07/26 05:24:37;0.00;0.00;0.62;0.00;0.00;0.62;3.50;1.97;;;27.20;32.50;;;;;;2225247;62;20503;-62
2022/07/26 05:27:22;0.00;0.00;0.62;0.00;0.00;0.62;5.37;2.33;;;27.20;32.50;;;;;;2226695;62;20689;-62
2022/07/26 05:30:10;0.00;0.00;0.62;0.00;0.00;0.62;5.50;2.93;;;27.20;32.50;;;;;;2224494;62;20397;-62
2022/07/26 05:32:55;0.00;0.00;0.62;0.00;0.00;0.62;5.87;2.33;;;27.20;32.60;;;;;;2491026;46;20411;-62
2022/07/26 05:35:39;0.00;0.00;0.62;0.00;0.00;0.62;8.47;3.10;;;27.20;32.80;;;;;;2216813;62;20436;-62
2022/07/26 05:38:24;0.00;0.00;0.62;0.00;0.00;0.62;5.97;2.53;;;27.20;32.90;;;;;;2216858;62;20425;-62
2022/07/26 05:41:09;0.00;0.00;0.62;0.00;0.00;0.62;6.80;2.67;;;27.20;32.80;;;;;;2221318;62;20381;-61
2022/07/26 05:43:54;0.00;0.00;0.62;0.00;0.00;0.62;8.57;2.70;;;27.20;33.50;;;;;;2224415;62;20430;-61
2022/07/26 05:46:40;0.00;0.00;0.62;0.00;0.00;0.62;4.57;2.30;;;27.20;33.50;;;;;;2225025;62;20361;-61
2022/07/26 05:49:25;0.00;0.00;0.62;0.00;0.00;0.62;5.73;2.20;;;27.20;32.80;;;;;;2224189;62;20375;-61
2022/07/26 05:52:09;0.00;0.00;0.62;0.00;0.00;0.62;4.50;2.43;;;27.20;32.90;;;;;;2221049;62;20471;-61
2022/07/26 05:54:54;0.00;0.00;0.62;0.00;0.00;0.62;5.10;2.43;;;27.20;32.80;;;;;;2220965;62;20586;-62
2022/07/26 05:57:46;0.00;0.00;0.62;0.00;0.00;0.62;3.70;2.47;;;27.20;33.50;;;;;;2220353;62;20733;-62
2022/07/26 06:00:31;0.00;0.00;0.62;0.00;0.00;0.62;5.13;2.57;;;27.20;32.90;;;;;;2220490;62;20440;-62
2022/07/26 06:03:23;0.00;0.00;0.62;0.00;0.00;0.62;6.87;2.60;;;27.20;32.90;;;;;;2220362;62;20386;-61
2022/07/26 06:06:08;0.00;0.00;0.62;0.00;0.00;0.62;5.40;2.37;;;27.20;32.90;;;;;;2220718;62;20375;-61
2022/07/26 06:08:52;0.00;0.00;0.62;0.00;0.00;0.62;7.33;2.00;;;27.20;33.10;;;;;;2220900;62;20716;-61
2022/07/26 06:11:37;0.00;0.00;0.62;0.00;0.00;0.62;4.23;2.13;;;27.20;33.10;;;;;;2220348;62;20610;-61
2022/07/26 06:14:23;0.00;0.00;0.62;0.00;0.00;0.62;4.67;2.43;;;27.20;33.20;;;;;;2220632;62;20363;-62
2022/07/26 06:17:08;0.00;0.00;0.62;0.00;0.00;0.62;5.80;2.80;;;27.20;33.20;;;;;;2222951;62;20394;-62
2022/07/26 06:19:54;0.00;0.00;0.62;0.00;0.00;0.62;7.30;3.20;;;27.20;33.30;;;;;;2220243;62;20396;-62
2022/07/26 06:22:39;0.00;0.00;0.62;0.00;0.00;0.62;4.87;2.63;;;27.20;33.50;;;;;;2220005;62;20459;-61
2022/07/26 06:25:24;0.00;0.00;0.62;0.00;0.00;0.62;6.10;2.80;;;27.20;33.50;;;;;;2220373;62;20367;-62
2022/07/26 06:28:10;0.00;0.00;0.62;0.00;0.00;0.62;5.47;2.40;;;27.20;33.60;;;;;;2220623;62;20351;-61
2022/07/26 06:30:55;0.00;0.00;0.62;0.00;0.00;0.62;4.07;2.10;;;27.20;33.40;;;;;;2220610;62;20600;-62
2022/07/26 06:33:39;0.00;0.00;0.62;0.00;0.00;0.62;3.33;2.30;;;27.20;33.40;;;;;;2221865;62;20383;-61
2022/07/26 06:36:25;0.00;0.00;0.62;0.00;0.00;0.62;4.27;2.50;;;27.20;33.60;;;;;;2222292;62;20412;-62
2022/07/26 06:39:10;0.00;0.00;0.62;0.00;0.00;0.62;6.10;2.97;;;27.20;33.60;;;;;;2328206;46;20386;-62
2022/07/26 06:41:55;0.00;0.00;0.62;0.00;0.00;0.62;5.03;2.33;;;27.20;33.70;;;;;;2225249;62;20398;-61
2022/07/26 06:44:40;0.00;0.00;0.62;0.00;0.00;0.62;7.80;2.90;;;27.20;33.60;;;;;;2225472;62;20404;-62
2022/07/26 06:47:24;0.00;0.00;0.62;0.00;0.00;0.62;5.50;2.73;;;27.20;33.60;;;;;;2225875;62;20415;-62
2022/07/26 06:50:09;0.00;0.00;0.62;0.00;0.00;0.62;4.80;2.80;;;27.20;33.60;;;;;;2225258;62;20673;-62
2022/07/26 06:52:56;0.00;0.00;0.62;0.00;0.00;0.62;5.03;2.93;;;27.20;33.60;;;;;;2444670;54;20387;-62
2022/07/26 06:55:41;0.00;0.00;0.62;0.00;0.00;0.62;5.03;2.67;;;27.20;33.70;;;;;;2217970;62;20368;-62
2022/07/26 06:58:26;0.00;0.00;0.62;0.00;0.00;0.62;4.17;2.20;;;27.20;33.80;;;;;;2217650;62;20392;-62
2022/07/26 07:01:11;0.00;0.00;0.62;0.00;0.00;0.62;5.90;2.90;;;27.20;33.70;;;;;;2220999;62;20373;-62
2022/07/26 07:03:56;0.00;0.00;0.62;0.00;0.00;0.62;6.27;3.00;;;27.20;33.70;;;;;;2225649;62;20382;-62
2022/07/26 07:06:42;0.00;0.00;0.62;0.00;0.00;0.62;6.60;2.93;;;27.20;33.80;;;;;;2225332;62;20730;-63
2022/07/26 07:09:28;0.00;0.00;0.62;0.00;0.00;0.62;4.20;2.73;;;27.20;33.90;;;;;;2225867;62;20436;-63
2022/07/26 07:12:14;0.00;0.00;0.62;0.00;0.00;0.62;3.67;2.83;;;27.20;33.90;;;;;;2225723;62;20418;-64
2022/07/26 07:14:58;0.00;0.00;0.62;0.00;0.00;0.62;4.80;2.63;;;27.20;33.80;;;;;;2225947;62;20370;-71
2022/07/26 07:17:43;0.00;0.00;0.62;0.00;0.00;0.62;7.50;3.07;;;27.20;33.80;;;;;;2225611;62;20397;-67
2022/07/26 07:20:28;0.00;0.00;0.62;0.00;0.00;0.62;6.07;3.07;;;27.20;33.70;;;;;;2224389;62;20375;-71
2022/07/26 07:23:13;0.00;0.00;0.62;0.00;0.00;0.62;7.80;3.50;;;27.20;33.70;;;;;;2225851;62;20382;-70
2022/07/26 07:25:59;0.00;0.00;0.62;0.00;0.00;0.62;4.47;2.80;;;27.20;33.60;;;;;;2225651;62;20733;-72
2022/07/26 07:28:44;0.00;0.00;0.62;0.00;0.00;0.62;3.20;2.67;;;27.20;33.60;;;;;;2222605;62;20383;-71
2022/07/26 07:31:29;0.00;0.00;0.62;0.00;0.00;0.62;2.73;2.23;;;27.20;33.50;;;;;;2223619;62;20584;-70
2022/07/26 07:34:14;0.00;0.00;0.62;0.00;0.00;0.62;3.30;2.60;;;27.20;33.60;;;;;;2225737;62;20366;-67
2022/07/26 07:36:59;0.00;0.00;0.62;0.00;0.00;0.62;7.40;3.03;;;27.20;33.60;;;;;;2225737;62;20416;-63
2022/07/26 07:39:44;0.00;0.00;0.62;0.00;0.00;0.62;7.90;2.70;;;27.20;33.40;;;;;;2225606;62;20374;-66
2022/07/26 07:42:31;0.00;0.00;0.62;0.00;0.00;0.62;6.13;2.67;;;27.20;33.40;;;;;;2225223;62;20382;-70
2022/07/26 07:45:17;0.00;0.00;0.62;0.00;0.00;0.62;4.07;2.37;;;27.20;33.30;;;;;;2225654;62;20483;-68
2022/07/26 07:48:03;0.00;0.00;0.62;0.00;0.00;0.62;3.80;2.60;;;27.20;33.30;;;;;;2225404;62;20362;-70
2022/07/26 07:50:49;0.00;0.00;0.62;0.00;0.00;0.62;5.17;2.90;;;27.20;33.30;;;;;;2225164;62;20393;-69
2022/07/26 07:53:35;0.00;0.00;0.62;0.00;0.00;0.62;4.37;2.63;;;27.20;33.30;;;;;;2225712;62;20467;-69
2022/07/26 07:56:20;0.00;0.00;0.62;0.00;0.00;0.62;11.37;3.20;;;27.20;33.30;;;;;;2225456;62;20370;-69
2022/07/26 07:59:08;0.00;0.00;0.62;0.00;0.00;0.62;5.73;3.33;;;27.30;33.20;;;;;;2225465;62;20366;-70
2022/07/26 08:01:53;0.00;0.00;0.62;0.00;0.00;0.62;6.07;3.30;;;27.20;33.10;;;;;;2221917;62;20662;-71
2022/07/26 08:04:38;0.00;0.00;0.62;0.00;0.00;0.62;4.20;2.73;;;27.20;33.20;;;;;;2448833;54;20723;-72
2022/07/26 08:07:23;0.00;0.00;0.62;0.00;0.00;0.62;2.80;2.23;;;27.30;33.20;;;;;;2221802;62;20367;-68
2022/07/26 08:10:10;0.00;0.00;0.62;0.00;0.00;0.62;4.07;2.73;;;27.30;33.20;;;;;;2221430;62;20379;-67
2022/07/26 08:12:55;0.00;0.00;0.62;0.00;0.00;0.62;3.50;2.40;;;27.30;33.10;;;;;;2221388;62;20390;-68
2022/07/26 08:15:44;0.00;0.00;0.62;0.00;0.00;0.62;3.43;2.43;;;27.30;33.70;;;;;;2221772;62;20683;-67
2022/07/26 08:18:31;0.00;0.00;0.62;0.00;0.00;0.62;3.83;2.80;;;27.30;32.90;;;;;;2221086;62;20505;-69
2022/07/26 08:21:19;0.00;0.00;0.62;0.00;0.00;0.62;3.40;2.70;;;27.30;32.90;;;;;;2221197;62;20788;-66
2022/07/26 08:24:07;0.00;0.00;0.62;0.00;0.00;0.62;4.10;2.53;;;27.40;33.00;;;;;;2229909;62;20370;-67
2022/07/26 08:26:52;0.00;0.00;0.62;0.00;0.00;0.62;4.10;3.03;;;27.40;33.00;;;;;;2227177;62;20611;-70
2022/07/26 08:29:38;0.00;0.00;0.62;0.00;0.00;0.62;4.30;3.00;;;27.40;33.00;;;;;;2221659;62;20416;-67
2022/07/26 08:32:24;0.00;0.00;0.62;0.00;0.00;0.62;5.43;2.70;;;27.40;33.00;;;;;;2224439;62;20501;-68
2022/07/26 08:35:10;0.00;0.00;0.62;0.00;0.00;0.62;3.90;2.33;;;27.40;33.00;;;;;;2225286;62;20746;-67
2022/07/26 08:37:56;0.00;0.00;0.62;0.00;0.00;0.62;3.13;2.10;;;27.40;33.10;;;;;;2225516;62;20390;-69
2022/07/26 08:40:41;0.00;0.00;0.62;0.00;0.00;0.62;2.80;1.90;;;27.40;33.20;;;;;;2224141;62;20431;-68
2022/07/26 08:43:26;0.00;0.00;0.62;0.00;0.00;0.62;2.53;1.50;;;27.40;33.30;;;;;;2221549;62;20409;-71
2022/07/26 08:46:10;0.00;0.00;0.62;0.00;0.00;0.62;2.13;1.60;;;27.40;33.40;;;;;;2222314;62;20730;-70
2022/07/26 08:48:56;0.00;0.00;0.62;0.00;0.00;0.62;4.60;1.80;;;27.50;33.70;;;;;;2220954;62;20371;-67
2022/07/26 08:51:43;0.00;0.00;0.62;0.00;0.00;0.62;2.17;1.60;;;27.50;33.80;;;;;;2222111;62;20459;-68
2022/07/26 08:54:27;0.00;0.00;0.62;0.00;0.00;0.62;2.93;1.63;;;27.50;33.90;;;;;;2444892;54;20587;-67
2022/07/26 08:57:13;0.00;0.00;0.62;0.00;0.00;0.62;2.13;1.30;;;27.50;33.90;;;;;;2218078;62;20429;-76
2022/07/26 09:00:15;0.00;0.00;0.62;0.00;0.00;0.62;1.80;1.20;;;27.60;34.00;;;;;;2218403;62;20401;-69
2022/07/26 09:03:03;0.00;0.00;0.62;0.00;0.00;0.62;2.13;1.23;;;27.60;34.00;;;;;;2533771;46;20387;-71
2022/07/26 09:05:49;0.00;0.00;0.62;0.00;0.00;0.62;2.33;1.50;;;27.60;34.10;;;;;;2218515;62;20395;-70
2022/07/26 09:08:35;0.00;0.00;0.62;0.00;0.00;0.62;3.70;1.50;;;27.60;34.10;;;;;;2218259;62;20376;-70
2022/07/26 09:11:30;0.00;0.00;0.62;0.00;0.00;0.62;2.80;1.47;;;27.60;34.00;;;;;;2219902;62;20419;-70
2022/07/26 09:14:16;0.00;0.00;0.62;0.00;0.00;0.62;2.30;1.30;;;27.70;34.10;;;;;;2222337;62;20414;-70
2022/07/26 09:17:00;0.00;0.00;0.62;0.00;0.00;0.62;2.27;1.23;;;27.70;34.10;;;;;;2221971;62;20375;-71
2022/07/26 09:20:02;0.00;0.00;0.62;0.00;0.00;0.62;2.00;1.30;;;27.70;34.10;;;;;;2221830;62;20588;-73
2022/07/26 09:23:04;0.00;0.00;0.62;0.00;0.00;0.62;2.60;1.57;;;27.70;34.10;;;;;;2222117;62;20415;-74
2022/07/26 09:25:49;0.00;0.00;0.62;0.00;0.00;0.62;3.40;1.40;;;27.70;34.10;;;;;;2221783;62;20489;-74
2022/07/26 09:28:34;0.00;0.00;0.62;0.00;0.00;0.62;2.60;1.40;;;27.80;34.30;;;;;;2222273;62;20367;-69
2022/07/26 09:31:22;0.00;0.00;0.62;0.00;0.00;0.62;2.00;1.40;;;27.70;34.30;;;;;;2223297;62;20610;-71
2022/07/26 09:34:07;0.00;0.00;0.62;0.00;0.00;0.62;2.13;1.20;;;27.70;34.60;;;;;;2225669;62;20402;-70
2022/07/26 09:36:54;0.00;0.00;0.62;0.00;0.00;0.62;1.93;1.40;;;27.70;34.60;;;;;;2226085;62;20742;-70
2022/07/26 09:39:55;0.00;0.00;0.62;0.00;0.00;0.62;5.10;1.50;;;27.70;34.60;;;;;;2225493;62;20362;-71
2022/07/26 09:42:54;0.00;0.00;0.62;0.00;0.00;0.62;2.97;1.60;;;27.70;34.70;;;;;;2247979;59;20484;-70
2022/07/26 09:45:39;0.00;0.00;0.62;0.00;0.00;0.62;3.00;1.23;;;27.70;34.80;;;;;;2225854;62;20407;-69
2022/07/26 09:48:28;0.00;0.00;0.62;0.00;0.00;0.62;2.83;1.40;;;27.60;34.80;;;;;;2225705;62;20358;-70
2022/07/26 09:51:13;0.00;0.00;0.62;0.00;0.00;0.62;2.70;1.30;;;27.60;34.90;;;;;;2224824;62;20378;-70
2022/07/26 09:53:58;0.00;0.00;0.62;0.00;0.00;0.62;2.20;1.20;;;27.60;35.00;;;;;;2225942;62;20370;-70
2022/07/26 09:56:47;0.00;0.00;0.62;0.00;0.00;0.62;1.90;1.40;;;27.60;35.10;;;;;;2225580;62;20381;-70
2022/07/26 09:59:32;0.00;0.00;0.62;0.00;0.00;0.62;3.07;1.77;;;27.50;35.20;;;;;;2221132;62;20403;-70
2022/07/26 10:02:17;0.00;0.00;0.62;0.00;0.00;0.62;3.87;1.47;;;27.50;35.20;;;;;;2221868;62;20398;-73
2022/07/26 10:05:01;0.00;0.00;0.62;0.00;0.00;0.62;3.47;1.60;;;27.60;35.60;;;;;;2222185;62;20606;-68
2022/07/26 10:07:47;0.00;0.00;0.62;0.00;0.00;0.62;3.67;1.50;;;27.50;35.70;;;;;;2221867;62;20384;-70
2022/07/26 10:10:38;0.00;0.00;0.62;0.00;0.00;0.62;3.90;1.80;;;27.60;35.70;;;;;;2221350;62;20757;-71
2022/07/26 10:13:26;0.00;0.00;0.62;0.00;0.00;0.62;2.07;1.37;;;27.50;35.80;;;;;;2222148;62;20387;-71
2022/07/26 10:16:33;0.00;0.00;0.62;0.00;0.00;0.62;2.47;1.47;;;27.60;35.80;;;;;;2221846;62;20374;-70
2022/07/26 10:19:38;0.00;0.00;0.62;0.00;0.00;0.62;2.83;1.70;;;27.60;36.00;;;;;;2221659;62;20389;-70
2022/07/26 10:22:23;0.00;0.00;0.62;0.00;0.00;0.62;3.47;1.33;;;27.50;35.90;;;;;;2224899;62;20431;-72
2022/07/26 10:25:45;0.00;0.00;0.62;0.00;0.00;0.62;2.10;1.50;;;27.60;36.00;;;;;;2225632;62;20406;-71
2022/07/26 10:28:35;0.00;0.00;0.62;0.00;0.00;0.62;2.10;1.80;;;27.60;36.00;;;;;;2226362;62;20366;-71
2022/07/26 10:31:29;0.00;0.00;0.62;0.00;0.00;0.62;3.93;1.97;;;27.60;36.10;;;;;;2225098;62;20390;-72
2022/07/26 10:34:30;0.00;0.00;0.62;0.00;0.00;0.62;2.70;1.37;;;27.60;36.10;;;;;;2226002;62;20389;-71
2022/07/26 10:37:26;0.00;0.00;0.62;0.00;0.00;0.62;2.63;1.47;;;27.60;36.10;;;;;;2225679;62;20394;-73
2022/07/26 10:40:21;0.00;0.00;0.62;0.00;0.00;0.62;2.73;1.60;;;27.60;36.20;;;;;;2225673;62;20443;-70
2022/07/26 10:43:08;0.00;0.00;0.62;0.00;0.00;0.62;2.00;1.60;;;27.60;36.30;;;;;;2439742;54;20384;-69
2022/07/26 10:46:28;0.00;0.00;0.62;0.00;0.00;0.62;4.17;1.90;;;27.60;36.30;;;;;;2219113;62;20742;-71
2022/07/26 10:49:18;0.00;0.00;0.62;0.00;0.00;0.62;1.73;1.20;;;27.50;36.20;;;;;;2221953;62;20363;-69
2022/07/26 10:52:11;0.00;0.00;0.62;0.00;0.00;0.62;3.20;1.53;;;27.60;36.10;;;;;;2224455;62;20466;-69
2022/07/26 10:55:16;0.00;0.00;0.62;0.00;0.00;0.62;2.67;1.23;;;27.60;36.00;;;;;;2225341;62;20362;-70
2022/07/26 10:58:00;0.00;0.00;0.62;0.00;0.00;0.62;2.13;1.43;;;27.60;35.90;;;;;;2226257;62;20746;-68
2022/07/26 11:00:59;0.00;0.00;0.62;0.00;0.00;0.62;2.13;1.20;;;27.60;36.00;;;;;;2224420;62;20487;-69